.
WxDataArchive / Data Records for 2012-10-01
2012-09-30 October 2012 2012-10-02

Data Records for Monday, 01 October 2012

Time	Temp	Chill	HIndex	Humid	Dewpt	 Wind 	HiWind	WindDir	Rain 	Barom 
-----	----	-----	------	-----	-----	------	------	-------	-----	----- 
00:00	46.4	46.4	46.4	84	41.8	0	0	---	0.00	29.945 
00:05	46.2	46.2	46.2	84	41.6	0	0	---	0.00	29.945 
00:10	46.2	46.2	46.2	85	41.9	0	0	---	0.00	29.945 
00:15	46.2	46.2	46.2	85	41.9	0	0	---	0.00	29.937 
00:20	46.2	46.2	46.2	85	41.9	0	0	---	0.00	29.937 
00:25	46.4	46.4	46.4	85	42.1	0	0	---	0.00	29.937 
00:30	46.5	46.5	46.5	85	42.2	0	0	---	0.00	29.936 
00:35	46.5	46.5	46.5	85	42.2	0	0	---	0.00	29.936 
00:40	46.8	46.8	46.8	85	42.5	0	0	---	0.00	29.936 
00:45	46.8	46.8	46.8	84	42.2	0	0	---	0.00	29.934 
00:50	46.8	46.8	46.8	84	42.2	0	0	---	0.00	29.934 
00:55	47.0	47.0	47.0	84	42.4	0	0	---	0.00	29.934 
01:00	47.0	47.0	47.0	84	42.4	0	0	---	0.00	29.933 
01:05	46.8	46.8	46.8	84	42.2	0	0	---	0.00	29.933 
01:10	46.8	46.8	46.8	84	42.2	0	0	---	0.00	29.933 
01:15	46.7	46.7	46.7	84	42.1	0	0	---	0.00	29.930 
01:20	46.7	46.7	46.7	84	42.1	0	0	---	0.00	29.930 
01:25	46.5	46.5	46.5	84	41.9	0	0	---	0.00	29.930 
01:30	46.4	46.4	46.4	84	41.8	0	0	---	0.00	29.932 
01:35	46.2	46.2	46.2	84	41.6	0	0	---	0.00	29.932 
01:40	46.1	46.1	46.1	84	41.5	0	0	---	0.00	29.932 
01:45	45.8	45.8	45.8	85	41.6	0	0	---	0.00	29.932 
01:50	45.7	45.7	45.7	85	41.5	0	0	---	0.00	29.932 
01:55	45.5	45.5	45.5	85	41.3	0	0	---	0.00	29.932 
02:00	45.4	45.4	45.4	86	41.5	0	0	---	0.00	29.931 
02:05	45.2	45.2	45.2	86	41.3	0	0	---	0.00	29.931 
02:10	45.1	45.1	45.1	86	41.2	0	0	---	0.00	29.931 
02:15	44.9	44.9	44.9	87	41.3	0	0	---	0.00	29.929 
02:20	44.8	44.8	44.8	87	41.2	0	0	---	0.00	29.929 
02:25	44.6	44.6	44.6	87	41.0	0	0	---	0.00	29.929 
02:30	44.5	44.5	44.5	87	40.9	0	0	---	0.00	29.923 
02:35	44.3	44.3	44.3	87	40.7	0	0	---	0.00	29.923 
02:40	44.2	44.2	44.2	88	40.9	0	0	---	0.00	29.923 
02:45	44.1	44.1	44.1	88	40.8	0	0	---	0.00	29.920 
02:50	44.1	44.1	44.1	88	40.8	0	0	---	0.00	29.920 
02:55	44.1	44.1	44.1	88	40.8	0	0	---	0.00	29.920 
03:00	44.1	44.1	44.1	89	41.1	0	0	---	0.00	29.913 
03:05	44.2	44.2	44.2	89	41.2	0	0	---	0.00	29.913 
03:10	44.2	44.2	44.2	90	41.5	0	0	---	0.00	29.913 
03:15	44.1	44.1	44.1	90	41.4	0	0	---	0.00	29.912 
03:20	44.1	44.1	44.1	90	41.4	0	0	---	0.00	29.912 
03:25	44.1	44.1	44.1	90	41.4	0	0	---	0.00	29.912 
03:30	43.9	43.9	43.9	90	41.2	0	0	---	0.00	29.908 
03:35	43.9	43.9	43.9	90	41.2	0	0	---	0.00	29.908 
03:40	43.8	43.8	43.8	90	41.1	0	0	---	0.00	29.908 
03:45	43.8	43.8	43.8	90	41.1	0	0	---	0.00	29.906 
03:50	43.6	43.6	43.6	90	40.9	0	0	---	0.00	29.906 
03:55	43.5	43.5	43.5	91	41.0	0	0	---	0.00	29.906 
04:00	43.5	43.5	43.5	91	41.0	0	0	---	0.00	29.907 
04:05	43.3	43.3	43.3	91	40.9	0	0	---	0.00	29.907 
04:10	43.3	43.3	43.3	91	40.9	0	0	---	0.00	29.907 
04:15	43.3	43.3	43.3	91	40.9	0	0	---	0.00	29.907 
04:20	43.2	43.2	43.2	91	40.8	0	0	---	0.00	29.907 
04:25	43.2	43.2	43.2	91	40.8	0	0	---	0.00	29.907 
04:30	43.1	43.1	43.1	91	40.7	0	0	---	0.00	29.908 
04:35	43.1	43.1	43.1	91	40.7	0	0	---	0.00	29.908 
04:40	42.9	42.9	42.9	91	40.5	0	0	---	0.00	29.908 
04:45	42.9	42.9	42.9	91	40.5	0	0	---	0.00	29.908 
04:50	42.8	42.8	42.8	92	40.6	0	0	---	0.00	29.908 
04:55	42.8	42.8	42.8	92	40.6	0	0	---	0.00	29.908 
05:00	42.6	42.6	42.6	92	40.4	0	0	---	0.00	29.908 
05:05	42.5	42.5	42.5	92	40.3	0	0	---	0.00	29.908 
05:10	42.3	42.3	42.3	92	40.1	0	0	---	0.00	29.908 
05:15	42.3	42.3	42.3	92	40.1	0	0	---	0.00	29.913 
05:20	42.2	42.2	42.2	92	40.0	0	0	---	0.00	29.913 
05:25	42.1	42.1	42.1	92	39.9	0	0	---	0.00	29.913 
05:30	41.9	41.9	41.9	92	39.7	0	0	---	0.00	29.909 
05:35	41.9	41.9	41.9	92	39.7	0	0	---	0.00	29.909 
05:40	41.8	41.8	41.8	92	39.6	0	0	---	0.00	29.909 
05:45	41.6	41.6	41.6	92	39.5	0	0	---	0.00	29.908 
05:50	41.6	41.6	41.6	92	39.5	0	0	---	0.00	29.908 
05:55	41.5	41.5	41.5	92	39.4	0	0	---	0.00	29.908 
06:00	41.3	41.3	41.3	92	39.2	0	0	---	0.00	29.912 
06:05	41.3	41.3	41.3	92	39.2	0	0	---	0.00	29.912 
06:10	41.2	41.2	41.2	92	39.1	0	0	---	0.00	29.912 
06:15	41.1	41.1	41.1	92	39.0	0	0	---	0.00	29.919 
06:20	41.1	41.1	41.1	92	39.0	0	0	---	0.00	29.919 
06:25	41.1	41.1	41.1	92	39.0	0	0	---	0.00	29.919 
06:30	41.1	41.1	41.1	92	39.0	0	0	---	0.00	29.914 
06:35	40.9	40.9	40.9	92	38.8	0	0	---	0.00	29.914 
06:40	40.8	40.8	40.8	92	38.7	0	0	---	0.00	29.914 
06:45	40.8	40.8	40.8	92	38.7	0	0	---	0.00	29.916 
06:50	40.8	40.8	40.8	93	38.9	0	0	---	0.00	29.916 
06:55	40.8	40.8	40.8	93	38.9	0	0	---	0.00	29.916 
07:00	40.8	40.8	40.8	93	38.9	0	0	---	0.00	29.920 
07:05	40.8	40.8	40.8	93	38.9	0	0	---	0.00	29.920 
07:10	40.8	40.8	40.8	93	38.9	0	0	---	0.00	29.920 
07:15	40.8	40.8	40.8	93	38.9	0	0	---	0.00	29.921 
07:20	40.8	40.8	40.8	93	38.9	0	0	---	0.00	29.921 
07:25	40.8	40.8	40.8	93	38.9	0	0	---	0.00	29.921 
07:30	40.9	40.9	40.9	93	39.0	0	0	---	0.00	29.930 
07:35	41.2	41.2	41.2	94	39.6	0	0	---	0.00	29.930 
07:40	41.3	41.3	41.3	94	39.7	0	0	---	0.00	29.930 
07:45	41.6	41.6	41.6	94	40.0	0	0	---	0.00	29.927 
07:50	41.9	41.9	41.9	94	40.3	0	0	---	0.00	29.927 
07:55	42.2	42.2	42.2	94	40.6	0	0	---	0.00	29.927 
08:00	42.3	42.3	42.3	94	40.7	0	0	---	0.00	29.929 
08:05	42.3	42.3	42.3	94	40.7	0	0	---	0.00	29.929 
08:10	42.5	42.5	42.5	94	40.9	0	0	---	0.00	29.929 
08:15	42.8	42.8	42.8	94	41.2	0	0	---	0.00	29.934 
08:20	42.8	42.8	42.8	94	41.2	0	0	---	0.00	29.934 
08:25	42.9	42.9	42.9	94	41.3	0	0	---	0.00	29.934 
08:30	43.3	43.3	43.3	95	42.0	0	0	---	0.00	29.932 
08:35	43.9	43.9	43.9	95	42.6	0	1	90	0.00	29.932 
08:40	44.3	44.3	44.3	95	43.0	0	1	90	0.00	29.932 
08:45	44.6	44.6	44.6	95	43.3	0	0	---	0.00	29.939 
08:50	44.9	44.9	44.9	95	43.6	0	1	90	0.00	29.939 
08:55	45.2	45.2	45.2	95	43.9	0	2	90	0.00	29.939 
09:00	45.5	45.5	45.5	95	44.2	0	2	90	0.00	29.943 
09:05	45.8	45.8	45.8	94	44.2	0	1	90	0.00	29.943 
09:10	46.2	46.2	46.2	94	44.6	0	1	90	0.00	29.943 
09:15	46.7	46.7	46.7	94	45.1	0	1	90	0.00	29.944 
09:20	47.3	47.3	47.3	93	45.4	0	2	90	0.00	29.944 
09:25	47.9	47.9	47.9	92	45.7	0	3	90	0.00	29.944 
09:30	48.5	48.5	48.5	91	46.0	0	3	90	0.00	29.939 
09:35	49.2	49.2	49.2	91	46.7	0	3	90	0.00	29.939 
09:40	49.6	49.6	49.6	89	46.5	1	2	90	0.00	29.939 
09:45	50.2	50.2	50.2	88	46.8	1	4	90	0.00	29.936 
09:50	50.7	50.7	50.7	87	47.0	2	4	90	0.00	29.936 
09:55	51.4	51.4	51.4	86	47.4	1	4	68	0.00	29.936 
10:00	52.2	52.2	52.2	85	47.8	1	3	68	0.00	29.927 
10:05	52.9	52.9	52.9	83	47.9	1	4	68	0.00	29.927 
10:10	53.3	53.3	53.3	82	47.9	2	5	90	0.00	29.927 
10:15	53.8	53.8	53.8	81	48.1	1	3	90	0.00	29.925 
10:20	54.5	54.5	54.5	80	48.5	1	5	90	0.00	29.925 
10:25	55.1	55.1	55.1	79	48.7	2	5	90	0.00	29.925 
10:30	55.7	55.7	55.7	77	48.6	1	5	112	0.00	29.920 
10:35	56.2	56.2	56.2	76	48.7	2	7	112	0.00	29.920 
10:40	56.9	56.9	56.9	76	49.4	2	5	90	0.00	29.920 
10:45	57.3	57.3	57.3	75	49.4	2	5	68	0.00	29.918 
10:50	57.3	57.3	57.3	74	49.1	3	7	112	0.00	29.918 
10:55	57.5	57.5	57.5	74	49.3	2	5	90	0.00	29.918 
11:00	57.8	57.8	57.8	74	49.6	3	7	90	0.00	29.920 
11:05	58.3	58.3	58.3	72	49.3	2	7	90	0.00	29.920 
11:10	58.6	58.6	58.6	71	49.2	3	10	112	0.00	29.920 
11:15	58.6	58.6	58.6	72	49.6	2	5	68	0.00	29.909 
11:20	58.9	58.9	58.9	72	49.9	2	4	90	0.00	29.909 
11:25	59.0	59.0	59.0	70	49.2	3	10	90	0.00	29.909 
11:30	59.0	59.0	59.0	70	49.2	2	5	90	0.00	29.906 
11:35	59.0	59.0	59.0	69	48.8	3	6	90	0.00	29.906 
11:40	58.7	58.7	58.7	70	48.9	3	10	68	0.00	29.906 
11:45	58.9	58.9	58.9	70	49.1	2	7	135	0.00	29.896 
11:50	58.9	58.9	58.9	69	48.7	3	10	90	0.00	29.896 
11:55	59.0	59.0	59.0	69	48.8	3	9	90	0.00	29.896 
12:00	59.3	59.3	59.3	67	48.3	2	4	90	0.00	29.896 
12:05	59.5	59.5	59.5	65	47.7	3	9	90	0.00	29.896 
12:10	59.5	59.5	59.5	67	48.5	3	7	90	0.00	29.896 
12:15	59.6	59.6	59.6	66	48.2	2	7	90	0.00	29.889 
12:20	59.8	59.8	59.8	66	48.4	3	7	90	0.00	29.889 
12:25	59.9	59.9	59.9	65	48.1	2	5	68	0.00	29.889 
12:30	60.1	60.1	60.1	63	47.5	3	7	90	0.00	29.890 
12:35	60.1	60.1	60.1	64	47.9	4	9	90	0.00	29.890 
12:40	59.9	59.9	59.9	62	46.8	4	9	90	0.00	29.890 
12:45	60.1	60.1	60.1	60	46.2	3	8	68	0.00	29.885 
12:50	60.4	60.4	60.4	62	47.3	3	10	90	0.00	29.885 
12:55	60.7	60.7	60.7	58	45.8	3	6	90	0.00	29.885 
13:00	60.9	60.9	60.9	58	46.0	3	8	68	0.00	29.877 
13:05	61.2	61.2	61.2	60	47.2	1	4	68	0.00	29.877 
13:10	61.2	61.2	61.2	57	45.8	3	7	90	0.00	29.877 
13:15	61.2	61.2	61.2	59	46.8	2	7	90	0.00	29.875 
13:20	61.0	61.0	61.0	57	45.7	3	7	90	0.00	29.875 
13:25	60.9	60.9	60.9	57	45.6	2	5	90	0.00	29.875 
13:30	60.7	60.7	60.7	58	45.8	3	7	90	0.00	29.864 
13:35	60.7	60.7	60.7	57	45.4	3	6	68	0.00	29.864 
13:40	60.9	60.9	60.9	58	46.0	3	9	90	0.00	29.864 
13:45	60.9	60.9	60.9	55	44.6	2	6	90	0.00	29.858 
13:50	61.0	61.0	61.0	56	45.2	2	6	90	0.00	29.858 
13:55	61.2	61.2	61.2	55	44.9	3	7	68	0.00	29.858 
14:00	61.5	61.5	61.5	55	45.2	2	6	90	0.00	29.868 
14:05	62.0	62.0	62.0	55	45.6	3	10	90	0.00	29.868 
14:10	62.7	62.7	62.7	54	45.8	3	7	90	0.00	29.868 
14:15	63.2	63.2	63.2	50	44.2	3	7	68	0.00	29.864 
14:20	63.4	63.4	63.4	51	45.0	2	5	112	0.00	29.864 
14:25	62.9	62.9	62.9	50	44.0	4	10	68	0.00	29.864 
14:30	62.4	62.4	62.4	51	44.0	4	7	90	0.00	29.860 
14:35	62.4	62.4	62.4	53	45.0	2	6	68	0.00	29.860 
14:40	63.1	63.1	63.1	52	45.2	2	6	90	0.00	29.860 
14:45	63.7	63.7	63.7	52	45.7	3	8	90	0.00	29.843 
14:50	64.0	64.0	64.0	52	46.0	2	6	90	0.00	29.843 
14:55	63.9	63.9	63.9	52	45.9	3	10	90	0.00	29.843 
15:00	63.9	63.9	63.9	52	45.9	3	7	90	0.00	29.842 
15:05	64.0	64.0	64.0	53	46.5	2	5	90	0.00	29.842 
15:10	63.9	63.9	63.9	50	44.9	3	7	90	0.00	29.842 
15:15	63.9	63.9	63.9	53	46.4	2	5	135	0.00	29.842 
15:20	63.9	63.9	63.9	53	46.4	2	10	90	0.00	29.842 
15:25	64.3	64.3	64.3	52	46.3	1	3	90	0.00	29.842 
15:30	64.3	64.3	64.3	51	45.8	3	7	90	0.00	29.843 
15:35	64.0	64.0	64.0	52	46.0	2	4	68	0.00	29.843 
15:40	63.5	63.5	63.5	51	45.0	2	5	68	0.00	29.843 
15:45	63.4	63.4	63.4	52	45.5	3	8	90	0.00	29.831 
15:50	63.5	63.5	63.5	50	44.5	3	7	112	0.00	29.831 
15:55	63.7	63.7	63.7	52	45.7	2	5	112	0.00	29.831 
16:00	63.9	63.9	63.9	51	45.4	2	5	112	0.00	29.825 
16:05	63.9	63.9	63.9	51	45.4	2	6	90	0.00	29.825 
16:10	63.7	63.7	63.7	50	44.7	3	7	90	0.00	29.825 
16:15	63.7	63.7	63.7	51	45.2	3	10	90	0.00	29.823 
16:20	63.9	63.9	63.9	50	44.9	3	6	90	0.00	29.823 
16:25	63.9	63.9	63.9	50	44.9	2	5	90	0.00	29.823 
16:30	64.0	64.0	64.0	50	45.0	1	5	90	0.00	29.817 
16:35	64.2	64.2	64.2	51	45.7	2	6	90	0.00	29.817 
16:40	64.3	64.3	64.3	49	44.7	3	6	90	0.00	29.817 
16:45	64.3	64.3	64.3	48	44.2	3	10	90	0.00	29.814 
16:50	64.3	64.3	64.3	50	45.3	1	4	68	0.00	29.814 
16:55	64.5	64.5	64.5	49	44.9	2	6	68	0.00	29.814 
17:00	64.7	64.7	64.7	49	45.1	3	6	90	0.00	29.817 
17:05	64.7	64.7	64.7	49	45.1	2	3	90	0.00	29.817 
17:10	64.7	64.7	64.7	48	44.6	3	7	90	0.00	29.817 
17:15	64.5	64.5	64.5	49	44.9	2	5	68	0.00	29.824 
17:20	64.3	64.3	64.3	50	45.3	3	6	68	0.00	29.824 
17:25	64.3	64.3	64.3	49	44.7	2	5	90	0.00	29.824 
17:30	64.2	64.2	64.2	49	44.6	2	5	90	0.00	29.827 
17:35	64.0	64.0	64.0	48	43.9	2	6	68	0.00	29.827 
17:40	63.9	63.9	63.9	49	44.4	3	6	90	0.00	29.827 
17:45	63.7	63.7	63.7	49	44.2	1	3	90	0.00	29.820 
17:50	63.5	63.5	63.5	49	44.0	2	4	90	0.00	29.820 
17:55	63.5	63.5	63.5	49	44.0	2	4	90	0.00	29.820 
18:00	63.4	63.4	63.4	49	43.9	2	5	90	0.00	29.814 
18:05	63.2	63.2	63.2	50	44.2	2	4	90	0.00	29.814 
18:10	63.1	63.1	63.1	50	44.2	2	5	90	0.00	29.814 
18:15	62.9	62.9	62.9	51	44.5	2	5	90	0.00	29.812 
18:20	62.9	62.9	62.9	51	44.5	2	4	90	0.00	29.812 
18:25	62.7	62.7	62.7	52	44.8	0	3	90	0.00	29.812 
18:30	62.7	62.7	62.7	53	45.3	1	4	90	0.00	29.812 
18:35	62.6	62.6	62.6	53	45.2	1	4	90	0.00	29.812 
18:40	62.6	62.6	62.6	54	45.7	0	2	90	0.00	29.812 
18:45	62.4	62.4	62.4	54	45.5	0	3	90	0.00	29.802 
18:50	62.3	62.3	62.3	54	45.4	0	0	---	0.00	29.802 
18:55	62.1	62.1	62.1	55	45.7	0	1	90	0.00	29.802 
19:00	62.0	62.0	62.0	55	45.6	0	1	90	0.00	29.808 
19:05	61.8	61.8	61.8	56	45.9	0	1	90	0.00	29.808 
19:10	61.8	61.8	61.8	55	45.5	0	1	90	0.00	29.808 
19:15	61.6	61.6	61.6	56	45.7	0	0	---	0.00	29.802 
19:20	61.5	61.5	61.5	57	46.1	0	1	90	0.00	29.802 
19:25	61.3	61.3	61.3	56	45.5	0	1	90	0.00	29.802 
19:30	61.2	61.2	61.2	56	45.4	0	0	---	0.00	29.800 
19:35	61.2	61.2	61.2	56	45.4	0	3	90	0.00	29.800 
19:40	61.2	61.2	61.2	56	45.4	0	2	90	0.00	29.800 
19:45	61.0	61.0	61.0	56	45.2	0	1	90	0.00	29.802 
19:50	61.0	61.0	61.0	57	45.7	0	3	90	0.00	29.802 
19:55	61.0	61.0	61.0	57	45.7	0	1	90	0.00	29.802 
20:00	61.0	61.0	61.0	58	46.1	1	4	112	0.00	29.801 
20:05	61.0	61.0	61.0	59	46.6	1	3	135	0.00	29.801 
20:10	61.0	61.0	61.0	60	47.0	1	3	135	0.00	29.801 
20:15	61.0	61.0	61.0	61	47.5	1	4	90	0.00	29.808 
20:20	61.0	61.0	61.0	62	47.9	1	3	90	0.00	29.808 
20:25	60.9	60.9	60.9	62	47.8	1	4	90	0.00	29.808 
20:30	60.9	60.9	60.9	62	47.8	1	3	90	0.00	29.811 
20:35	60.7	60.7	60.7	62	47.6	2	6	90	0.00	29.811 
20:40	60.7	60.7	60.7	62	47.6	2	7	90	0.00	29.811 
20:45	60.7	60.7	60.7	62	47.6	2	4	90	0.00	29.816 
20:50	60.5	60.5	60.5	63	47.8	1	4	90	0.00	29.816 
20:55	60.4	60.4	60.4	63	47.7	2	6	90	0.00	29.816 
21:00	60.2	60.2	60.2	63	47.6	2	9	90	0.00	29.819 
21:05	60.2	60.2	60.2	63	47.6	1	4	90	0.00	29.819 
21:10	60.1	60.1	60.1	63	47.5	1	4	112	0.00	29.819 
21:15	59.9	59.9	59.9	64	47.7	0	3	112	0.00	29.818 
21:20	59.8	59.8	59.8	63	47.2	1	5	112	0.00	29.818 
21:25	59.8	59.8	59.8	64	47.6	1	3	90	0.00	29.818 
21:30	59.6	59.6	59.6	64	47.4	0	4	90	0.00	29.822 
21:35	59.6	59.6	59.6	64	47.4	0	3	90	0.00	29.822 
21:40	59.5	59.5	59.5	65	47.7	0	2	90	0.00	29.822 
21:45	59.3	59.3	59.3	65	47.5	0	1	68	0.00	29.821 
21:50	59.3	59.3	59.3	65	47.5	0	2	68	0.00	29.821 
21:55	59.2	59.2	59.2	66	47.8	0	2	68	0.00	29.821 
22:00	59.0	59.0	59.0	67	48.1	0	2	68	0.00	29.822 
22:05	59.0	59.0	59.0	67	48.1	0	2	68	0.00	29.822 
22:10	58.9	58.9	58.9	68	48.4	0	2	68	0.00	29.822 
22:15	58.9	58.9	58.9	69	48.7	0	2	68	0.00	29.816 
22:20	58.7	58.7	58.7	70	48.9	1	6	68	0.00	29.816 
22:25	58.6	58.6	58.6	71	49.2	1	4	112	0.00	29.816 
22:30	58.6	58.6	58.6	73	50.0	1	4	112	0.00	29.809 
22:35	58.3	58.3	58.3	75	50.4	1	5	112	0.00	29.809 
22:40	58.0	58.0	58.0	77	50.8	1	3	68	0.00	29.809 
22:45	57.6	57.6	57.6	78	50.8	1	5	90	0.00	29.804 
22:50	57.5	57.5	57.5	79	51.0	1	5	90	0.00	29.804 
22:55	57.2	57.2	57.2	81	51.4	0	2	90	0.00	29.804 
23:00	56.9	56.9	56.9	82	51.5	0	2	90	0.01	29.809 
23:05	56.7	56.7	56.7	83	51.6	1	4	90	0.00	29.809 
23:10	56.5	56.5	56.5	84	51.7	0	2	90	0.00	29.809 
23:15	56.3	56.3	56.3	85	51.8	0	1	90	0.00	29.805 
23:20	56.2	56.2	56.2	85	51.7	0	1	90	0.00	29.805 
23:25	56.0	56.0	56.0	86	51.9	0	1	90	0.00	29.805 
23:30	55.9	55.9	55.9	86	51.8	0	2	90	0.00	29.799 
23:35	55.7	55.7	55.7	87	51.9	0	2	90	0.00	29.799 
23:40	55.7	55.7	55.7	87	51.9	1	7	90	0.00	29.799 
23:45	55.6	55.6	55.6	87	51.8	1	4	90	0.00	29.789 
23:50	55.6	55.6	55.6	87	51.8	2	6	90	0.00	29.789 
23:55	55.4	55.4	55.4	87	51.6	2	5	90	0.00	29.789 

CoCoRaHS
IN-AL-39
A2 Web Hosting
Creative Commons License
GoDaddy
search engine by freefind advanced

loaded 2018-11-13 22:30:02 • last modified 2010-11-18 10:43:29
Privacy PolicyDisclaimer
• wx.awcolley.com is powered by PmWiki v.2002016 •
• all content (unless otherwise noted) © 2018 A W Colley